• Join FlightAware (Why Join?)
  • Login
  • US Flag 
01:52AM EDT


 

Airport Tracker/Info


-or-


 

Live Flight TrackerFlight Track Log ✈ N656BB ✈ 03-May-2014 ✈ KADS - KADS

Flight Track Log - Related Links

Times and Time Zones

All times are in EDT time to prevent confusion due to time zone crossing. See the N656BB flight status page for this flight to view local times or setup timezone preferences in your user account.

Time Position Orientation Groundspeed Altitude Reporting Facility
EDT Latitude Longitude Course Direction KTS MPH feet Rate Location/Type
12:10PM 32.9667 -96.8333 140° Southeast 89 102 900  Level Dallas / Fort Worth TRACON
12:11PM 32.9500 -96.8167 140° Southeast 84 97 1,600 540 Climbing Dallas / Fort Worth TRACON
12:12PM 32.9653 -96.8036 36° Northeast 87 100 1,800 600 Climbing Fort Worth Center
12:13PM 32.9903 -96.7850 32° Northeast 105 121 2,600 720 Climbing Fort Worth Center
12:14PM 33.0097 -96.7642 42° Northeast 91 105 3,400 420 Climbing Fort Worth Center
12:15PM 33.0347 -96.7414 37° Northeast 116 133 3,500 420 Climbing Fort Worth Center
12:16PM 33.0608 -96.7225 31° Northeast 106 122 4,300 480 Climbing Fort Worth Center
12:17PM 33.0828 -96.6983 43° Northeast 106 122 4,600 120 Climbing Fort Worth Center
12:18PM 33.1122 -96.6711 38° Northeast 130 150 4,600 -60 Level Fort Worth Center
12:19PM 33.1442 -96.6389 40° Northeast 137 158 4,500  Descending Fort Worth Center
12:20PM 33.1650 -96.6069 52° Northeast 134 154 4,600  Climbing Fort Worth Center
12:21PM 33.1889 -96.5625 57° Northeast 135 155 4,600 360 Level Fort Worth Center
12:22PM 33.2056 -96.5322 57° Northeast 111 128 5,400 420 Climbing Fort Worth Center
12:23PM 33.2200 -96.5022 60° Northeast 106 122 5,500  Climbing Fort Worth Center
12:24PM 33.2408 -96.4606 59° Northeast 130 150 5,500  Level Fort Worth Center
12:25PM 33.2678 -96.4294 44° Northeast 134 154 5,600  Climbing Fort Worth Center
12:26PM 33.3069 -96.4203 11° North 133 153 5,500 -60 Descending Fort Worth Center
12:27PM 33.3436 -96.4156 North 134 154 5,500 -120 Level Fort Worth Center
12:28PM 33.3806 -96.4233 350° North 133 153 5,300 60 Descending Fort Worth Center
12:29PM 33.3542 -96.4275 188° South 122 140 5,700 240 Climbing Fort Worth Center
12:30PM 33.3450 -96.3831 104° East 126 145 5,800 -120 Climbing Fort Worth Center
12:31PM 33.3583 -96.3372 71° East 146 168 5,500 -180 Descending Fort Worth Center
12:32PM 33.3764 -96.2961 62° Northeast 143 165 5,500  Level Fort Worth Center
12:33PM 33.3950 -96.2511 64° Northeast 142 163 5,500  Level Fort Worth Center
12:34PM 33.4128 -96.2100 63° Northeast 141 162 5,500  Level Fort Worth Center
12:35PM 33.4314 -96.1653 63° Northeast 141 162 5,500  Level Fort Worth Center
12:36PM 33.4458 -96.1228 68° East 140 161 5,500  Level Fort Worth Center
12:37PM 33.4536 -96.0733 79° East 140 161 5,500  Level Fort Worth Center
12:38PM 33.4608 -96.0278 79° East 140 161 5,500  Level Fort Worth Center
12:40PM 33.4661 -95.9789 83° East 140 161 5,500  Level Fort Worth Center
12:41PM 33.4733 -95.9322 79° East 140 161 5,500  Level Fort Worth Center
12:42PM 33.4811 -95.8825 79° East 140 161 5,500  Level Fort Worth Center
12:43PM 33.4886 -95.8358 79° East 140 161 5,500  Level Fort Worth Center
12:44PM 33.4961 -95.7903 79° East 140 161 5,500  Level Fort Worth Center
12:45PM 33.5031 -95.7411 80° East 140 161 5,500  Level Fort Worth Center
12:46PM 33.5092 -95.6953 81° East 140 161 5,500  Level Fort Worth Center
12:47PM 33.5169 -95.6464 79° East 140 161 5,500  Level Fort Worth Center
12:48PM 33.5206 -95.6006 85° East 140 161 5,500  Level Fort Worth Center
12:49PM 33.5233 -95.5611 85° East 140 161 5,500  Level Fort Worth Center
12:50PM 33.5325 -95.5083 78° East 138 159 5,500  Level Fort Worth Center
12:51PM 33.5208 -95.4742 112° Southeast 147 169 5,500  Level Fort Worth Center
12:52PM 33.4794 -95.4700 175° South 155 178 5,500  Level Fort Worth Center
12:53PM 33.4419 -95.4592 166° South 148 170 5,500  Level Fort Worth Center
12:54PM 33.4017 -95.4442 163° South 147 169 5,500  Level Fort Worth Center
12:55PM 33.3647 -95.4319 165° South 146 168 5,500  Level Fort Worth Center
12:56PM 33.3258 -95.4242 171° South 145 167 5,500  Level Fort Worth Center
12:57PM 33.2786 -95.4219 178° South 145 167 5,500  Level Fort Worth Center
12:58PM 33.2383 -95.4214 179° South 144 166 5,500  Level Fort Worth Center
12:59PM 33.1986 -95.4139 171° South 145 167 5,500  Level Fort Worth Center
01:00PM 33.1578 -95.4078 173° South 145 167 5,500  Level Fort Worth Center
01:01PM 33.1169 -95.4008 172° South 147 169 5,500  Level Fort Worth Center
01:02PM 33.0767 -95.3967 175° South 147 169 5,500  Level Fort Worth Center
01:03PM 33.0311 -95.3875 170° South 145 167 5,500  Level Fort Worth Center
01:04PM 32.9908 -95.3842 176° South 144 166 5,500  Level Fort Worth Center
01:05PM 32.9519 -95.3803 175° South 144 166 5,500  Level Fort Worth Center
01:06PM 32.9103 -95.3725 171° South 144 166 5,500  Level Fort Worth Center
01:07PM 32.8706 -95.3650 171° South 144 166 5,500  Level Fort Worth Center
01:08PM 32.8325 -95.3594 173° South 144 166 5,500  Level Fort Worth Center
01:09PM 32.7842 -95.3528 173° South 144 166 5,500  Level Fort Worth Center
01:10PM 32.7472 -95.3606 190° South 144 166 5,500  Level Fort Worth Center
01:11PM 32.7067 -95.3578 177° South 142 163 5,500  Level Fort Worth Center
01:12PM 32.6675 -95.3564 178° South 143 165 5,500  Level Fort Worth Center
01:14PM 32.6272 -95.3536 177° South 143 165 5,500  Level Fort Worth Center
01:15PM 32.5894 -95.3561 183° South 142 163 5,500 -60 Level Fort Worth Center
01:16PM 32.5500 -95.3569 181° South 142 163 5,400 -360 Descending Fort Worth Center
01:17PM 32.4994 -95.3544 178° South 150 173 4,800 -360 Descending Fort Worth Center
01:18PM 32.4583 -95.3497 174° South 150 173 4,700 -60 Descending Fort Worth Center
01:34PM 32.4478 -95.6878 297° West 131 151 4,600 -60 Descending Fort Worth Center
01:35PM 32.5421 -95.8475 296° West  Level FlightAware Approximate
01:35PM 32.4650 -95.7275 297° West 132 152 4,600  Level Fort Worth Center
01:36PM 32.5562 -95.8729 320° Northwest  Level FlightAware Approximate
01:36PM 32.4819 -95.7689 296° West 133 153 4,600  Level Fort Worth Center
01:37PM 32.5723 -95.8966 297° West  Level FlightAware Approximate
01:37PM 32.5008 -95.8089 299° West 135 155 4,500  Level Fort Worth Center
01:38PM 32.5841 -95.9243 297° West  Level FlightAware Approximate
01:38PM 32.5197 -95.8500 299° West 139 160 4,500  Level Fort Worth Center
01:39PM 32.5959 -95.9520 297° West  Level FlightAware Approximate
01:39PM 32.5381 -95.8900 299° West 139 160 4,500  Level Fort Worth Center
01:40PM 32.5600 -95.9383 298° West 139 160 4,500  Level Fort Worth Center
01:41PM 32.5794 -95.9783 300° West 139 160 4,500  Level Fort Worth Center
01:42PM 32.5978 -96.0192 298° West 139 160 4,500  Level Fort Worth Center
01:43PM 32.6169 -96.0586 300° West 139 160 4,500  Level Fort Worth Center
01:44PM 32.6342 -96.0986 297° West 139 160 4,500  Level Fort Worth Center
01:45PM 32.6553 -96.1458 298° West 139 160 4,500  Level Fort Worth Center
01:46PM 32.6733 -96.1847 299° West 138 159 4,500  Level Fort Worth Center
01:47PM 32.6928 -96.2264 299° West 136 157 4,500  Level Fort Worth Center
01:48PM 32.7111 -96.2650 299° West 136 157 4,500  Level Fort Worth Center
01:49PM 32.7283 -96.3050 297° West 136 157 4,500  Level Fort Worth Center
01:50PM 32.7481 -96.3469 299° West 136 157 4,500 -240 Level Fort Worth Center
01:51PM 32.7678 -96.3908 298° West 150 173 4,100 -720 Descending Fort Worth Center
01:52PM 32.7814 -96.4386 289° West 147 169 3,100 -780 Descending Fort Worth Center
01:53PM 32.7969 -96.4781 295° West 131 151 2,500 -300 Descending Fort Worth Center
01:54PM 32.8089 -96.5181 290° West 120 138 2,500  Level Fort Worth Center
01:55PM 32.8094 -96.5619 271° West 128 147 2,600 60 Climbing Fort Worth Center
01:56PM 32.8278 -96.5989 301° West 138 159 2,700 -120 Climbing Fort Worth Center
01:58PM 32.8503 -96.6386 304° West 136 157 2,400 -120 Descending Fort Worth Center
01:59PM 32.8728 -96.6747 307° West 136 157 2,500  Climbing Fort Worth Center
02:00PM 32.8972 -96.7089 310° West 136 157 2,500  Level Fort Worth Center
02:01PM 32.9236 -96.7431 313° West 135 155 2,500  Level Fort Worth Center
02:02PM 32.9536 -96.7764 317° Northwest 135 155 2,500 -120 Level Fort Worth Center
02:03PM 32.9811 -96.8069 317° Northwest 135 155 2,300 -540 Descending Fort Worth Center
02:04PM 33.0111 -96.8294 328° Northwest 132 152 1,400 -660 Descending Fort Worth Center
02:05PM 32.9947 -96.8464 221° Southwest 96 110 1,000 -300 Descending Fort Worth Center
02:06PM 32.9742 -96.8392 164° South 91 105 800 -240 Descending Fort Worth Center